createdAt,value
2018-07-17T00:00:47.891Z,89.15
2018-07-17T00:01:47.773Z,91.06
2018-07-17T00:02:47.647Z,91.92
2018-07-17T00:03:47.526Z,92.02
2018-07-17T00:04:47.406Z,91.25
2018-07-17T00:05:47.284Z,92.30
2018-07-17T00:06:47.161Z,91.16
2018-07-17T00:07:47.039Z,91.16
2018-07-17T00:08:46.919Z,89.72
2018-07-17T00:09:46.877Z,92.11
2018-07-17T00:10:46.673Z,94.12
2018-07-17T00:11:46.553Z,92.78
2018-07-17T00:12:46.471Z,93.64
2018-07-17T00:13:46.311Z,91.35
2018-07-17T00:14:46.187Z,90.77
2018-07-17T00:15:46.067Z,88.95
2018-07-17T00:16:45.947Z,88.48
2018-07-17T00:17:45.824Z,87.81
2018-07-17T00:18:45.703Z,88.76
2018-07-17T00:19:45.582Z,87.33
2018-07-17T00:20:45.460Z,88.00
2018-07-17T00:21:45.337Z,89.24
2018-07-17T00:22:45.214Z,89.24
2018-07-17T00:23:45.094Z,88.95
2018-07-17T00:24:44.972Z,88.48
2018-07-17T00:25:44.853Z,89.62
2018-07-17T00:26:44.727Z,90.01
2018-07-17T00:27:44.607Z,88.67
2018-07-17T00:28:44.487Z,89.91
2018-07-17T00:29:44.366Z,90.96
2018-07-17T00:30:44.243Z,91.53
2018-07-17T00:31:44.122Z,91.44
2018-07-17T00:32:44.001Z,88.95
2018-07-17T00:33:43.880Z,85.13
2018-07-17T00:34:43.756Z,87.27
2018-07-17T00:35:43.636Z,88.48
2018-07-17T00:36:43.513Z,88.81
2018-07-17T00:37:43.412Z,86.57
2018-07-17T00:38:43.277Z,87.37
2018-07-17T00:39:43.147Z,84.69
2018-07-17T00:40:43.028Z,90.01
2018-07-17T00:41:42.902Z,89.81
2018-07-17T00:42:42.785Z,91.16
2018-07-17T00:43:42.660Z,91.16
2018-07-17T00:44:42.539Z,88.19
2018-07-17T00:45:42.418Z,85.89
2018-07-17T00:46:42.295Z,86.61
2018-07-17T00:47:42.178Z,84.69
2018-07-17T00:48:42.052Z,83.36
2018-07-17T00:49:41.937Z,83.26
2018-07-17T00:50:41.809Z,82.40
2018-07-17T00:51:41.689Z,82.87
2018-07-17T00:52:41.565Z,85.55
2018-07-17T00:53:41.444Z,82.40
2018-07-17T00:54:41.326Z,81.92
2018-07-17T00:55:41.217Z,81.63
2018-07-17T00:56:41.081Z,82.78
2018-07-17T00:57:40.963Z,81.25
2018-07-17T00:58:40.840Z,80.29
2018-07-17T00:59:40.717Z,83.54
2018-07-17T01:00:40.603Z,84.79
2018-07-17T01:01:40.498Z,84.02
2018-07-17T01:02:40.349Z,85.75
2018-07-17T01:03:40.230Z,87.47
2018-07-17T01:04:40.108Z,86.04
2018-07-17T01:05:39.987Z,85.17
2018-07-17T01:06:39.868Z,84.02
2018-07-17T01:07:39.748Z,87.27
2018-07-17T01:08:39.624Z,89.24
2018-07-17T01:09:39.501Z,91.35
2018-07-17T01:10:39.384Z,91.25
2018-07-17T01:11:39.259Z,91.11
2018-07-17T01:12:39.143Z,91.39
2018-07-17T01:13:39.018Z,91.97
2018-07-17T01:14:38.897Z,93.12
2018-07-17T01:15:38.772Z,93.40
2018-07-17T01:16:38.652Z,93.69
2018-07-17T01:17:38.530Z,94.84
2018-07-17T01:18:38.412Z,92.74
2018-07-17T01:19:38.290Z,94.74
2018-07-17T01:20:38.166Z,94.98
2018-07-17T01:21:38.044Z,94.79
2018-07-17T01:22:37.924Z,95.17
2018-07-17T01:23:37.800Z,96.03
2018-07-17T01:24:37.677Z,96.32
2018-07-17T01:25:37.558Z,97.66
2018-07-17T01:26:37.438Z,96.89
2018-07-17T01:27:37.310Z,96.80
2018-07-17T01:28:37.189Z,96.80
2018-07-17T01:29:37.067Z,96.56
2018-07-17T01:30:36.947Z,96.94
2018-07-17T01:31:36.825Z,97.61
2018-07-17T01:32:36.705Z,98.47
2018-07-17T01:33:36.580Z,97.61
2018-07-17T01:34:36.458Z,97.23
2018-07-17T01:35:36.339Z,97.32
2018-07-17T01:36:36.215Z,96.66
2018-07-17T01:37:36.090Z,97.13
2018-07-17T01:38:35.975Z,97.89
2018-07-17T01:39:35.843Z,97.23
2018-07-17T01:40:35.726Z,97.71
2018-07-17T01:41:35.601Z,97.03
2018-07-17T01:42:35.529Z,97.32
2018-07-17T01:43:35.356Z,97.23
2018-07-17T01:44:35.235Z,97.80
2018-07-17T01:45:35.114Z,98.18
2018-07-17T01:46:34.989Z,98.28
2018-07-17T01:47:34.868Z,99.23
2018-07-17T01:48:34.744Z,99.71
2018-07-17T01:49:34.621Z,99.14
2018-07-17T01:50:34.502Z,99.52
2018-07-17T01:51:34.373Z,99.62
2018-07-17T01:52:34.253Z,99.99
2018-07-17T01:53:34.133Z,99.99
2018-07-17T01:54:34.014Z,99.99
2018-07-17T01:55:33.883Z,98.47
2018-07-17T01:56:33.770Z,98.42
2018-07-17T01:57:33.643Z,98.52
2018-07-17T01:58:33.515Z,98.42
2018-07-17T01:59:33.397Z,98.80
2018-07-17T02:00:33.272Z,98.13
2018-07-17T02:01:33.151Z,96.80
2018-07-17T02:02:33.028Z,97.47
2018-07-17T02:03:32.904Z,97.47
2018-07-17T02:04:32.780Z,96.99
2018-07-17T02:05:32.658Z,97.66
2018-07-17T02:06:32.536Z,98.52
2018-07-17T02:07:32.414Z,97.56
2018-07-17T02:08:32.292Z,99.48
2018-07-17T02:09:32.172Z,98.42
2018-07-17T02:10:32.048Z,98.80
2018-07-17T02:11:31.926Z,99.19
2018-07-17T02:12:31.803Z,99.28
2018-07-17T02:13:31.682Z,99.04
2018-07-17T02:14:31.559Z,98.04
2018-07-17T02:15:31.437Z,99.23
2018-07-17T02:16:31.323Z,99.43
2018-07-17T02:17:31.199Z,99.43
2018-07-17T02:18:31.067Z,99.04
2018-07-17T02:19:30.949Z,98.37
2018-07-17T02:20:30.828Z,98.66
2018-07-17T02:21:30.704Z,99.23
2018-07-17T02:22:30.578Z,99.80
2018-07-17T02:23:30.455Z,99.99
2018-07-17T02:24:30.335Z,99.99
2018-07-17T02:25:30.214Z,99.80
2018-07-17T02:26:30.090Z,99.52
2018-07-17T02:27:29.968Z,99.43
2018-07-17T02:28:29.846Z,99.43
2018-07-17T02:29:29.723Z,99.62
2018-07-17T02:30:29.598Z,99.62
2018-07-17T02:31:29.479Z,99.62
2018-07-17T02:32:29.357Z,99.48
2018-07-17T02:33:29.235Z,99.48
2018-07-17T02:34:29.110Z,98.71
2018-07-17T02:35:28.986Z,98.57
2018-07-17T02:36:28.865Z,98.66
2018-07-17T02:37:28.747Z,99.43
2018-07-17T02:38:28.623Z,99.71
2018-07-17T02:39:28.501Z,98.75
2018-07-17T02:40:28.378Z,99.04
2018-07-17T02:41:28.255Z,98.94
2018-07-17T02:42:28.189Z,99.52
2018-07-17T02:43:28.014Z,99.33
2018-07-17T02:44:27.891Z,99.90
2018-07-17T02:45:27.765Z,99.99
2018-07-17T02:46:27.645Z,99.99
2018-07-17T02:47:27.527Z,99.90
2018-07-17T02:48:27.399Z,99.85
2018-07-17T02:49:27.276Z,99.99
2018-07-17T02:50:27.153Z,99.52
2018-07-17T02:51:27.033Z,99.99
2018-07-17T02:52:26.912Z,99.90
2018-07-17T02:53:26.789Z,99.99
2018-07-17T02:54:26.666Z,99.71
2018-07-17T02:55:26.541Z,99.23
2018-07-17T02:56:26.421Z,99.62
2018-07-17T02:57:26.298Z,99.71
2018-07-17T02:58:26.176Z,99.99
2018-07-17T02:59:26.055Z,99.99
2018-07-17T03:00:25.931Z,99.99
2018-07-17T03:01:25.809Z,99.99
2018-07-17T03:02:25.685Z,99.99
2018-07-17T03:03:25.565Z,99.99
2018-07-17T03:04:25.447Z,99.99
2018-07-17T03:05:25.319Z,99.90
2018-07-17T03:06:25.195Z,99.99
2018-07-17T03:07:25.080Z,99.99
2018-07-17T03:08:24.952Z,99.99
2018-07-17T03:09:24.831Z,99.99
2018-07-17T03:10:24.710Z,99.99
2018-07-17T03:11:24.589Z,99.99
2018-07-17T03:12:24.462Z,99.99
2018-07-17T03:13:24.338Z,99.99
2018-07-17T03:14:24.225Z,99.99
2018-07-17T03:15:24.094Z,99.99
2018-07-17T03:16:23.970Z,99.99
2018-07-17T03:17:23.849Z,99.99
2018-07-17T03:18:23.727Z,99.99
2018-07-17T03:19:23.665Z,99.99
2018-07-17T03:20:23.482Z,99.99
2018-07-17T03:21:23.359Z,99.99
2018-07-17T03:22:23.254Z,99.99
2018-07-17T03:23:23.118Z,99.99
2018-07-17T03:24:23.013Z,99.99
2018-07-17T03:25:22.872Z,99.99
2018-07-17T03:26:22.744Z,99.99
2018-07-17T03:27:22.623Z,99.99
2018-07-17T03:28:22.503Z,99.99
2018-07-17T03:29:22.385Z,99.99
2018-07-17T03:30:22.253Z,99.99
2018-07-17T03:31:22.131Z,99.99
2018-07-17T03:32:22.009Z,99.99
2018-07-17T03:33:21.888Z,99.99
2018-07-17T03:34:21.767Z,99.99
2018-07-17T03:35:21.640Z,99.99
2018-07-17T03:36:21.585Z,99.99
2018-07-17T03:37:21.397Z,99.99
2018-07-17T03:38:21.270Z,99.99
2018-07-17T03:39:21.149Z,99.99
2018-07-17T03:40:21.026Z,99.99
2018-07-17T03:41:20.902Z,99.99
2018-07-17T03:42:20.781Z,99.99
2018-07-17T03:43:20.657Z,99.99
2018-07-17T03:44:20.534Z,99.99
2018-07-17T03:45:20.443Z,99.99
2018-07-17T03:46:20.288Z,99.99
2018-07-17T03:47:20.167Z,99.99
2018-07-17T03:48:20.044Z,99.99
2018-07-17T03:49:19.921Z,99.99
2018-07-17T03:50:19.802Z,99.99
2018-07-17T03:51:19.675Z,99.99
2018-07-17T03:52:19.604Z,99.99
2018-07-17T03:53:19.432Z,99.99
2018-07-17T03:54:19.312Z,99.99
2018-07-17T03:55:19.186Z,99.99
2018-07-17T03:56:19.060Z,99.99
2018-07-17T03:57:18.940Z,99.99
2018-07-17T03:58:18.815Z,99.99
2018-07-17T03:59:18.691Z,99.99
2018-07-17T04:00:18.570Z,99.99
2018-07-17T04:01:18.448Z,99.99
2018-07-17T04:02:18.323Z,99.99
2018-07-17T04:03:18.202Z,99.99
2018-07-17T04:04:18.110Z,99.99
2018-07-17T04:05:17.971Z,99.99
2018-07-17T04:06:17.831Z,99.99
2018-07-17T04:07:17.727Z,99.99
2018-07-17T04:08:17.591Z,99.99
2018-07-17T04:09:17.462Z,99.99
2018-07-17T04:10:17.339Z,99.99
2018-07-17T04:11:17.215Z,99.99
2018-07-17T04:12:17.093Z,99.99
2018-07-17T04:13:17.013Z,99.99
2018-07-17T04:14:16.848Z,99.99
2018-07-17T04:15:16.725Z,99.99
2018-07-17T04:16:16.603Z,99.99
2018-07-17T04:17:16.478Z,99.99
2018-07-17T04:18:16.355Z,99.99
2018-07-17T04:19:16.260Z,99.99
2018-07-17T04:20:16.139Z,99.99
2018-07-17T04:21:15.987Z,99.99
2018-07-17T04:22:15.869Z,99.99
2018-07-17T04:23:15.737Z,99.99
2018-07-17T04:24:15.615Z,99.99
2018-07-17T04:25:15.619Z,99.99
2018-07-17T04:26:15.369Z,99.99
2018-07-17T04:27:15.244Z,99.99
2018-07-17T04:28:15.123Z,99.99
2018-07-17T04:29:14.998Z,99.99
2018-07-17T04:30:14.882Z,99.99
2018-07-17T04:31:14.761Z,99.99
2018-07-17T04:32:14.628Z,99.99
2018-07-17T04:33:14.507Z,99.99
2018-07-17T04:34:14.384Z,99.99
2018-07-17T04:35:14.261Z,99.99
2018-07-17T04:36:14.141Z,99.99
2018-07-17T04:37:14.017Z,99.99
2018-07-17T04:38:13.945Z,99.99
2018-07-17T04:39:13.767Z,99.99
2018-07-17T04:40:13.643Z,99.99
2018-07-17T04:41:13.521Z,99.99
2018-07-17T04:42:13.407Z,99.99
2018-07-17T04:43:13.274Z,99.99
2018-07-17T04:44:13.235Z,99.99
2018-07-17T04:45:13.032Z,99.99
2018-07-17T04:46:12.906Z,99.99
2018-07-17T04:47:12.826Z,99.99
2018-07-17T04:48:12.659Z,99.99
2018-07-17T04:49:12.536Z,99.99
2018-07-17T04:50:12.415Z,99.99
2018-07-17T04:51:12.295Z,99.99
2018-07-17T04:52:12.167Z,99.99
2018-07-17T04:53:12.047Z,99.99
2018-07-17T04:54:11.924Z,99.99
2018-07-17T04:55:11.799Z,99.99
2018-07-17T04:56:11.685Z,99.99
2018-07-17T04:57:11.557Z,99.99
2018-07-17T04:58:11.433Z,99.99
2018-07-17T04:59:11.310Z,99.99
2018-07-17T05:00:11.194Z,99.99
2018-07-17T05:01:11.064Z,99.99
2018-07-17T05:02:10.942Z,99.99
2018-07-17T05:03:10.818Z,99.99
2018-07-17T05:04:10.699Z,99.99
2018-07-17T05:05:10.574Z,99.99
2018-07-17T05:06:10.450Z,99.99
2018-07-17T05:07:10.329Z,99.99
2018-07-17T05:08:10.208Z,99.99
2018-07-17T05:09:10.084Z,99.99
2018-07-17T05:10:09.962Z,99.99
2018-07-17T05:11:09.839Z,99.99
2018-07-17T05:12:09.718Z,99.99
2018-07-17T05:13:09.595Z,99.99
2018-07-17T05:14:09.468Z,99.99
2018-07-17T05:15:09.349Z,99.99
2018-07-17T05:16:09.225Z,99.99
2018-07-17T05:17:09.105Z,98.80
2018-07-17T05:18:08.992Z,99.99
2018-07-17T05:19:08.866Z,99.99
2018-07-17T05:20:08.783Z,99.99
2018-07-17T05:21:08.612Z,99.99
2018-07-17T05:22:08.492Z,99.99
2018-07-17T05:23:08.374Z,99.99
2018-07-17T05:24:08.247Z,99.99
2018-07-17T05:25:08.125Z,99.99
2018-07-17T05:26:08.010Z,98.95
2018-07-17T05:27:07.881Z,96.42
2018-07-17T05:28:07.756Z,95.94
2018-07-17T05:29:07.635Z,95.27
2018-07-17T05:30:07.512Z,94.60
2018-07-17T05:31:07.390Z,94.79
2018-07-17T05:32:07.268Z,94.79
2018-07-17T05:33:07.149Z,95.65
2018-07-17T05:34:07.033Z,94.98
2018-07-17T05:35:06.931Z,93.84
2018-07-17T05:36:06.782Z,93.93
2018-07-17T05:37:06.658Z,94.70
2018-07-17T05:38:06.536Z,94.60
2018-07-17T05:39:06.420Z,94.12
2018-07-17T05:40:06.295Z,92.02
2018-07-17T05:41:06.175Z,92.69
2018-07-17T05:42:06.055Z,90.48
2018-07-17T05:43:05.925Z,90.77
2018-07-17T05:44:05.807Z,87.90
2018-07-17T05:45:05.685Z,90.48
2018-07-17T05:46:05.561Z,90.39
2018-07-17T05:47:05.443Z,90.96
2018-07-17T05:48:05.319Z,89.43
2018-07-17T05:49:05.196Z,90.67
2018-07-17T05:50:05.075Z,89.34
2018-07-17T05:51:04.954Z,88.76
2018-07-17T05:52:04.958Z,90.48
2018-07-17T05:53:04.713Z,90.24
2018-07-17T05:54:04.588Z,90.48
2018-07-17T05:55:04.465Z,90.53
2018-07-17T05:56:04.344Z,90.53
2018-07-17T05:57:04.224Z,89.95
2018-07-17T05:58:04.101Z,87.27
2018-07-17T05:59:03.984Z,87.18
2018-07-17T06:00:03.859Z,86.74
2018-07-17T06:01:03.737Z,85.41
2018-07-17T06:02:03.616Z,84.55
2018-07-17T06:03:03.497Z,84.06
2018-07-17T06:04:03.373Z,83.68
2018-07-17T06:05:03.296Z,85.41
2018-07-17T06:06:03.129Z,86.08
2018-07-17T06:07:03.007Z,83.78
2018-07-17T06:08:02.886Z,83.39
2018-07-17T06:09:02.769Z,84.55
2018-07-17T06:10:02.645Z,85.69
2018-07-17T06:11:02.522Z,84.35
2018-07-17T06:12:02.401Z,85.06
2018-07-17T06:13:02.301Z,83.68
2018-07-17T06:14:02.159Z,83.44
2018-07-17T06:15:02.038Z,82.96
2018-07-17T06:16:01.919Z,81.00
2018-07-17T06:17:01.794Z,83.39
2018-07-17T06:18:01.675Z,83.39
2018-07-17T06:19:01.622Z,82.15
2018-07-17T06:20:01.433Z,81.43
2018-07-17T06:21:01.311Z,81.81
2018-07-17T06:22:01.197Z,82.09
2018-07-17T06:23:01.070Z,81.18
2018-07-17T06:24:00.947Z,79.16
2018-07-17T06:25:00.877Z,78.59
2018-07-17T06:26:00.702Z,80.32
2018-07-17T06:27:00.583Z,78.69
2018-07-17T06:28:00.462Z,76.86
2018-07-17T06:29:00.344Z,76.67
2018-07-17T06:30:00.221Z,78.40
2018-07-17T06:31:00.104Z,79.26
2018-07-17T06:31:59.987Z,78.69
2018-07-17T06:32:59.903Z,79.64
2018-07-17T06:33:59.739Z,79.45
2018-07-17T06:34:59.619Z,79.07
2018-07-17T06:35:59.500Z,79.83
2018-07-17T06:36:59.380Z,80.41
2018-07-17T06:37:59.254Z,78.40
2018-07-17T06:38:59.134Z,78.20
2018-07-17T06:39:59.016Z,79.93
2018-07-17T06:40:58.896Z,77.86
2018-07-17T06:41:58.771Z,79.21
2018-07-17T06:42:58.653Z,79.97
2018-07-17T06:43:58.531Z,78.44
2018-07-17T06:44:58.417Z,78.77
2018-07-17T06:45:58.291Z,77.29
2018-07-17T06:46:58.180Z,76.04
2018-07-17T06:47:58.051Z,78.44
2018-07-17T06:48:57.932Z,78.59
2018-07-17T06:49:57.812Z,79.45
2018-07-17T06:50:57.690Z,81.75
2018-07-17T06:51:57.573Z,82.14
2018-07-17T06:52:57.452Z,83.38
2018-07-17T06:53:57.330Z,84.72
2018-07-17T06:54:57.209Z,85.58
2018-07-17T06:55:57.088Z,83.19
2018-07-17T06:56:56.969Z,85.30
2018-07-17T06:57:56.849Z,85.68
2018-07-17T06:58:56.730Z,86.83
2018-07-17T06:59:56.609Z,84.01
2018-07-17T07:00:56.486Z,87.32
2018-07-17T07:01:56.366Z,90.67
2018-07-17T07:02:56.248Z,93.12
2018-07-17T07:03:56.128Z,93.45
2018-07-17T07:04:56.006Z,93.35
2018-07-17T07:05:55.883Z,92.68
2018-07-17T07:06:55.764Z,92.78
2018-07-17T07:07:55.647Z,92.58
2018-07-17T07:08:55.522Z,92.49
2018-07-17T07:09:55.400Z,94.60
2018-07-17T07:10:55.281Z,94.12
2018-07-17T07:11:55.162Z,93.45
2018-07-17T07:12:55.040Z,93.64
2018-07-17T07:13:54.917Z,92.87
2018-07-17T07:14:54.798Z,92.15
2018-07-17T07:15:54.697Z,93.49
2018-07-17T07:16:54.558Z,92.21
2018-07-17T07:17:54.434Z,93.35
2018-07-17T07:18:54.315Z,95.22
2018-07-17T07:19:54.192Z,96.13
2018-07-17T07:20:54.072Z,96.13
2018-07-17T07:21:53.949Z,95.51
2018-07-17T07:22:53.835Z,95.79
2018-07-17T07:23:53.769Z,95.22
2018-07-17T07:24:53.587Z,94.17
2018-07-17T07:25:53.468Z,93.78
2018-07-17T07:26:53.350Z,93.69
2018-07-17T07:27:53.224Z,93.88
2018-07-17T07:28:53.103Z,93.49
2018-07-17T07:29:52.987Z,93.11
2018-07-17T07:30:52.946Z,94.31
2018-07-17T07:31:52.742Z,94.21
2018-07-17T07:32:52.624Z,92.58
2018-07-17T07:33:52.500Z,90.47
2018-07-17T07:34:52.380Z,90.95
2018-07-17T07:35:52.259Z,91.91
2018-07-17T07:36:52.139Z,91.72
2018-07-17T07:37:52.016Z,94.54
2018-07-17T07:38:51.899Z,91.96
2018-07-17T07:39:51.776Z,89.03
2018-07-17T07:40:51.655Z,87.49
2018-07-17T07:41:51.535Z,86.54
2018-07-17T07:42:51.464Z,87.93
2018-07-17T07:43:51.301Z,87.26
2018-07-17T07:44:51.174Z,87.93
2018-07-17T07:45:51.054Z,87.98
2018-07-17T07:46:50.935Z,87.98
2018-07-17T07:47:50.813Z,89.32
2018-07-17T07:48:50.695Z,88.79
2018-07-17T07:49:50.573Z,88.06
2018-07-17T07:50:50.453Z,84.22
2018-07-17T07:51:50.336Z,84.60
2018-07-17T07:52:50.211Z,80.76
2018-07-17T07:53:50.092Z,82.68
2018-07-17T07:54:49.970Z,84.03
2018-07-17T07:55:49.853Z,83.84
2018-07-17T07:56:49.732Z,83.64
2018-07-17T07:57:49.612Z,78.17
2018-07-17T07:58:49.493Z,81.19
2018-07-17T07:59:49.375Z,79.22
2018-07-17T08:00:49.253Z,77.21
2018-07-17T08:01:49.132Z,81.24
2018-07-17T08:02:49.015Z,80.42
2018-07-17T08:03:48.906Z,77.86
2018-07-17T08:04:48.778Z,79.98
2018-07-17T08:05:48.660Z,74.02
2018-07-17T08:06:48.536Z,73.44
2018-07-17T08:07:48.419Z,75.37
2018-07-17T08:08:48.430Z,73.98
2018-07-17T08:09:48.228Z,72.64
2018-07-17T08:10:48.059Z,71.58
2018-07-17T08:11:47.999Z,74.27
2018-07-17T08:12:47.854Z,73.60
2018-07-17T08:13:47.835Z,77.01
2018-07-17T08:14:47.590Z,76.06
2018-07-17T08:15:47.466Z,76.54
2018-07-17T08:16:47.348Z,75.15
2018-07-17T08:17:47.228Z,78.67
2018-07-17T08:18:47.113Z,82.12
2018-07-17T08:19:46.990Z,83.18
2018-07-17T08:20:46.872Z,84.91
2018-07-17T08:21:46.752Z,81.84
2018-07-17T08:22:46.631Z,82.51
2018-07-17T08:23:46.524Z,78.52
2018-07-17T08:24:46.394Z,78.86
2018-07-17T08:25:46.273Z,81.64
2018-07-17T08:26:46.154Z,78.03
2018-07-17T08:27:46.042Z,76.79
2018-07-17T08:28:45.915Z,75.92
2018-07-17T08:29:45.837Z,75.82
2018-07-17T08:30:45.678Z,78.09
2018-07-17T08:31:45.557Z,78.38
2018-07-17T08:32:45.437Z,79.14
2018-07-17T08:33:45.316Z,82.12
2018-07-17T08:34:45.198Z,78.57
2018-07-17T08:35:45.111Z,78.47
2018-07-17T08:36:44.959Z,79.34
2018-07-17T08:37:44.840Z,78.38
2018-07-17T08:38:45.312Z,75.89
2018-07-17T08:39:44.600Z,74.64
2018-07-17T08:40:44.486Z,75.21
2018-07-17T08:41:44.363Z,77.94
2018-07-17T08:42:44.241Z,77.08
2018-07-17T08:43:44.200Z,79.38
2018-07-17T08:44:44.024Z,79.61
2018-07-17T08:45:43.883Z,78.55
2018-07-17T08:46:43.764Z,72.73
2018-07-17T08:47:43.644Z,71.64
2018-07-17T08:48:43.526Z,76.21
2018-07-17T08:49:43.441Z,78.61
2018-07-17T08:50:43.285Z,77.78
2018-07-17T08:51:43.168Z,75.32
2018-07-17T08:52:43.047Z,73.11
2018-07-17T08:53:42.962Z,73.88
2018-07-17T08:54:42.932Z,74.79
2018-07-17T08:55:42.688Z,71.14
2018-07-17T08:56:42.571Z,71.46
2018-07-17T08:57:42.455Z,69.50
2018-07-17T08:58:42.331Z,67.19
2018-07-17T08:59:42.213Z,65.84
2018-07-17T09:00:42.097Z,66.04
2018-07-17T09:01:41.976Z,67.19
2018-07-17T09:02:41.856Z,66.65
2018-07-17T09:03:41.978Z,66.17
2018-07-17T09:04:41.619Z,63.12
2018-07-17T09:05:41.507Z,64.37
2018-07-17T09:06:41.379Z,62.35
2018-07-17T09:07:41.261Z,63.25
2018-07-17T09:08:41.146Z,62.77
2018-07-17T09:09:41.030Z,63.06
2018-07-17T09:10:40.919Z,61.45
2018-07-17T09:11:40.789Z,60.10
2018-07-17T09:12:40.669Z,58.20
2018-07-17T09:13:40.551Z,58.08
2018-07-17T09:14:40.433Z,58.47
2018-07-17T09:15:40.321Z,57.31
2018-07-17T09:16:40.198Z,57.92
2018-07-17T09:17:40.079Z,55.48
2018-07-17T09:18:39.989Z,54.30
2018-07-17T09:19:47.835Z,56.51
2018-07-17T09:21:32.652Z,59.23
2018-07-17T09:22:32.395Z,57.12
2018-07-17T09:24:25.079Z,55.16
2018-07-17T09:25:24.955Z,56.32
2018-07-17T09:27:17.671Z,57.67
2018-07-17T09:28:17.523Z,56.90
2018-07-17T09:30:10.653Z,55.45
2018-07-17T09:31:10.114Z,55.33
2018-07-17T09:32:09.995Z,55.23
2018-07-17T09:33:09.887Z,55.04
2018-07-17T09:34:09.762Z,55.81
2018-07-17T09:35:09.640Z,53.78
2018-07-17T09:36:09.524Z,52.92
2018-07-17T09:37:09.405Z,53.19
2018-07-17T09:38:09.285Z,53.28
2018-07-17T09:39:09.167Z,54.34
2018-07-17T09:40:16.189Z,54.53
2018-07-17T09:42:01.923Z,53.38
2018-07-17T09:43:01.641Z,54.24
2018-07-17T09:44:54.328Z,54.24
2018-07-17T09:45:54.213Z,53.09
2018-07-17T09:46:54.077Z,52.92
2018-07-17T09:47:53.958Z,51.38
2018-07-17T09:48:53.843Z,51.86
2018-07-17T09:49:53.720Z,50.23
2018-07-17T09:50:53.618Z,50.25
2018-07-17T09:51:53.485Z,50.37
2018-07-17T09:52:53.368Z,50.09
2018-07-17T09:53:53.251Z,49.05
2018-07-17T09:54:53.129Z,49.15
2018-07-17T09:55:53.017Z,47.87
2018-07-17T09:56:52.895Z,47.49
2018-07-17T09:57:52.792Z,47.49
2018-07-17T09:58:52.659Z,48.18
2018-07-17T09:59:52.542Z,48.66
2018-07-17T10:00:52.434Z,47.99
2018-07-17T10:01:52.311Z,49.05
2018-07-17T10:02:52.194Z,48.88
2018-07-17T10:03:52.081Z,47.60
2018-07-17T10:04:51.952Z,47.70
2018-07-17T10:05:51.833Z,48.57
2018-07-17T10:06:51.718Z,48.95
2018-07-17T10:07:51.598Z,48.57
2018-07-17T10:08:51.479Z,48.86
2018-07-17T10:09:51.363Z,50.21
2018-07-17T10:10:51.249Z,48.08
2018-07-17T10:11:51.137Z,50.40
2018-07-17T10:12:51.013Z,47.80
2018-07-17T10:13:50.894Z,48.86
2018-07-17T10:14:50.776Z,48.28
2018-07-17T10:15:50.658Z,47.41
2018-07-17T10:16:50.540Z,48.88
2018-07-17T10:17:50.429Z,49.07
2018-07-17T10:18:50.306Z,49.07
2018-07-17T10:19:50.245Z,47.72
2018-07-17T10:20:50.071Z,48.90
2018-07-17T10:21:49.955Z,47.34
2018-07-17T10:22:49.840Z,50.71
2018-07-17T10:23:49.718Z,47.63
2018-07-17T10:24:49.604Z,47.82
2018-07-17T10:25:49.624Z,49.07
2018-07-17T10:26:49.396Z,46.97
2018-07-17T10:27:49.250Z,45.72
2018-07-17T10:28:49.135Z,45.82
2018-07-17T10:29:49.017Z,44.08
2018-07-17T10:30:48.902Z,44.06
2018-07-17T10:31:48.784Z,44.25
2018-07-17T10:32:48.743Z,47.07
2018-07-17T10:33:48.550Z,46.11
2018-07-17T10:34:48.435Z,44.54
2018-07-17T10:35:48.315Z,45.89
2018-07-17T10:36:48.199Z,46.01
2018-07-17T10:37:48.083Z,46.11
2018-07-17T10:38:47.964Z,45.03
2018-07-17T10:39:47.850Z,45.03
2018-07-17T10:40:47.732Z,45.03
2018-07-17T10:41:47.660Z,44.45
2018-07-17T10:42:47.500Z,44.54
2018-07-17T10:43:47.380Z,46.18
2018-07-17T10:44:47.264Z,46.86
2018-07-17T10:45:47.151Z,46.64
2018-07-17T10:46:47.465Z,46.83
2018-07-17T10:47:46.916Z,47.03
2018-07-17T10:48:46.797Z,46.45
2018-07-17T10:49:46.681Z,47.03
2018-07-17T10:50:46.566Z,47.29
2018-07-17T10:51:46.490Z,46.64
2018-07-17T10:52:46.517Z,46.55
2018-07-17T10:53:46.219Z,47.00
2018-07-17T10:54:46.184Z,48.83
2018-07-17T10:55:45.983Z,47.94
2018-07-17T10:56:45.866Z,49.00
2018-07-17T10:57:45.749Z,49.48
2018-07-17T10:58:45.628Z,50.23
2018-07-17T10:59:45.550Z,49.65
2018-07-17T11:00:45.392Z,49.65
2018-07-17T11:01:45.275Z,50.71
2018-07-17T11:02:45.156Z,52.25
2018-07-17T11:03:45.042Z,51.38
2018-07-17T11:04:44.923Z,52.15
2018-07-17T11:05:44.805Z,51.19
2018-07-17T11:06:44.688Z,51.17
2018-07-17T11:07:44.568Z,52.22
2018-07-17T11:08:44.451Z,52.42
2018-07-17T11:09:44.332Z,52.12
2018-07-17T11:10:44.214Z,52.12
2018-07-17T11:11:44.096Z,51.64
2018-07-17T11:12:43.980Z,51.74
2018-07-17T11:13:43.857Z,52.42
2018-07-17T11:14:43.740Z,52.83
2018-07-17T11:15:43.621Z,52.34
2018-07-17T11:16:43.504Z,51.86
2018-07-17T11:17:43.387Z,52.73
2018-07-17T11:18:43.267Z,53.02
2018-07-17T11:19:43.148Z,53.88
2018-07-17T11:20:43.029Z,54.56
2018-07-17T11:21:42.913Z,52.44
2018-07-17T11:22:42.796Z,51.67
2018-07-17T11:23:42.677Z,52.32
2018-07-17T11:24:42.559Z,52.80
2018-07-17T11:25:42.443Z,53.38
2018-07-17T11:26:42.329Z,53.38
2018-07-17T11:27:42.410Z,53.86
2018-07-17T11:28:42.083Z,53.86
2018-07-17T11:29:41.966Z,54.12
2018-07-17T11:30:41.850Z,55.20
2018-07-17T11:31:41.729Z,54.99
2018-07-17T11:32:41.626Z,55.18
2018-07-17T11:33:41.494Z,54.99
2018-07-17T11:34:41.372Z,55.18
2018-07-17T11:35:41.259Z,54.99
2018-07-17T11:36:41.135Z,55.27
2018-07-17T11:37:41.018Z,55.56
2018-07-17T11:38:40.968Z,56.33
2018-07-17T11:39:40.778Z,56.71
2018-07-17T11:40:40.663Z,57.00
2018-07-17T11:41:40.723Z,56.71
2018-07-17T11:42:40.424Z,57.10
2018-07-17T11:43:40.304Z,56.71
2018-07-17T11:44:40.187Z,56.81
2018-07-17T11:45:40.092Z,57.29
2018-07-17T11:46:39.949Z,57.00
2018-07-17T11:47:40.146Z,57.10
2018-07-17T11:48:46.923Z,57.00
2018-07-17T11:50:32.418Z,56.33
2018-07-17T11:51:32.269Z,56.14
2018-07-17T11:53:24.996Z,56.43
2018-07-17T11:54:24.826Z,55.56
2018-07-17T11:56:17.515Z,56.68
2018-07-17T11:57:17.359Z,57.07
2018-07-17T12:00:16.654Z,56.40
2018-07-17T12:01:15.932Z,57.07
2018-07-17T12:03:11.033Z,56.30
2018-07-17T12:04:10.374Z,55.91
2018-07-17T12:05:10.257Z,56.88
2018-07-17T12:06:10.138Z,56.30
2018-07-17T12:07:10.020Z,56.11
2018-07-17T12:08:09.900Z,56.49
2018-07-17T12:09:09.780Z,55.73
2018-07-17T12:10:09.726Z,56.04
2018-07-17T12:11:09.541Z,55.85
2018-07-17T12:12:09.426Z,57.07
2018-07-17T12:13:09.349Z,56.30
2018-07-17T12:14:09.182Z,56.30
2018-07-17T12:15:09.062Z,56.01
2018-07-17T12:16:08.943Z,56.40
2018-07-17T12:17:08.826Z,56.76
2018-07-17T12:18:08.707Z,57.90
2018-07-17T12:19:08.588Z,56.30
2018-07-17T12:20:08.575Z,55.41
2018-07-17T12:21:08.352Z,55.12
2018-07-17T12:22:08.233Z,55.51
2018-07-17T12:23:08.109Z,55.51
2018-07-17T12:24:07.990Z,56.56
2018-07-17T12:25:07.877Z,55.79
2018-07-17T12:26:07.751Z,54.64
2018-07-17T12:27:07.632Z,55.22
2018-07-17T12:28:07.610Z,54.93
2018-07-17T12:29:07.394Z,55.89
2018-07-17T12:30:07.281Z,56.76
2018-07-17T12:31:07.161Z,56.08
2018-07-17T12:32:07.036Z,55.89
2018-07-17T12:33:06.919Z,55.41
2018-07-17T12:34:06.795Z,55.12
2018-07-17T12:35:06.676Z,55.12
2018-07-17T12:36:06.557Z,53.68
2018-07-17T12:37:06.436Z,53.97
2018-07-17T12:38:06.319Z,53.97
2018-07-17T12:39:06.197Z,53.11
2018-07-17T12:40:06.077Z,52.05
2018-07-17T12:41:05.958Z,52.43
2018-07-17T12:42:05.837Z,54.25
2018-07-17T12:43:05.718Z,53.30
2018-07-17T12:44:05.603Z,52.24
2018-07-17T12:45:05.478Z,53.01
2018-07-17T12:46:05.360Z,52.94
2018-07-17T12:47:05.241Z,53.68
2018-07-17T12:48:05.118Z,53.78
2018-07-17T12:49:05.002Z,54.25
2018-07-17T12:50:05.065Z,54.16
2018-07-17T12:51:04.766Z,54.28
2018-07-17T12:52:04.644Z,53.61
2018-07-17T12:53:04.522Z,53.70
2018-07-17T12:54:04.401Z,51.98
2018-07-17T12:55:04.285Z,52.17
2018-07-17T12:56:04.163Z,52.17
2018-07-17T12:57:04.044Z,52.94
2018-07-17T12:58:03.927Z,53.80
2018-07-17T12:59:03.805Z,54.02
2018-07-17T13:00:03.689Z,55.18
2018-07-17T13:01:03.570Z,53.64
2018-07-17T13:02:03.446Z,52.48